Megan T Miller — WCW9003 — position and weather

sailwx.info

Track history (hours):
 
Tides and Currents Weather Stations Pressure Air Temp Water Temp Dewpoint Dewpoint Depression Visibility Wind Speed Wind Dir Waves Ship Positions

Megan T Miller

Owner: MILLER MARINE SERVICES INC, PORT JEFFERSON, NY. More information available from US FCC via Universal Licensing System and Coast Guard Vessel Documentation Center.

Last reported at 2016-Jul-29 04:33 UTC. Time now 2016-Jul-29 06:01 UTC.
Position N 41°13' W 072°30'.

Length 18 m; draft 3 m.

MMSI: 338104509.

Date/timePositionNaut miles runAvg speedWind from/ knotsBaromVisibWave heightAir tempDewpointWater temp
2016-Jul-29 04:33N 41°13' W 072°30'9 7.8
2016-Jul-29 03:28N 41°14' W 072°19'46 2.9
2016-Jul-28 11:21N 41°34' W 071°24'  
2016-Jul-23 14:23N 41°35' W 071°25'0 0.0
2016-Jul-23 13:33N 41°35' W 071°25'0 0.0
2016-Jul-23 12:34N 41°35' W 071°25'0 0.0
2016-Jul-23 11:33N 41°35' W 071°25'0 0.0
2016-Jul-23 10:13N 41°35' W 071°25'0 0.0
2016-Jul-23 09:22N 41°35' W 071°25'47 6.7
2016-Jul-23 02:19N 41°13' W 072°20'6 7.4
2016-Jul-23 01:33N 41°13' W 072°28'9 8.9
2016-Jul-23 00:33N 41°12' W 072°39'61 1.6
2016-Jul-21 10:29N 41°35' W 071°24'0 0.4
2016-Jul-21 09:23N 41°35' W 071°25'0 0.0
2016-Jul-21 08:33N 41°35' W 071°25'0 0.0
2016-Jul-21 07:34N 41°35' W 071°25'0 0.0
2016-Jul-21 03:27N 41°35' W 071°25'0 0.0
2016-Jul-21 02:32N 41°35' W 071°25'0 0.0
2016-Jul-21 01:28N 41°35' W 071°25'  
Track history (hours):
 
Tides and Currents Weather Stations Pressure Air Temp Water Temp Dewpoint Dewpoint Depression Visibility Wind Speed Wind Dir Waves Ship Positions

Megan T Miller

Owner: MILLER MARINE SERVICES INC, PORT JEFFERSON, NY. More information available from US FCC via Universal Licensing System and Coast Guard Vessel Documentation Center.

Last reported at 2016-Jul-29 04:33 UTC. Time now 2016-Jul-29 06:01 UTC.
Position N 41°13' W 072°30'.

Length 18 m; draft 3 m.

MMSI: 338104509.

Date/timePositionNaut miles runAvg speedWind from/ knotsBaromVisibWave heightAir tempDewpointWater temp
2016-Jul-29 04:33N 41°13' W 072°30'9 7.8
2016-Jul-29 03:28N 41°14' W 072°19'46 2.9
2016-Jul-28 11:21N 41°34' W 071°24'  
2016-Jul-23 14:23N 41°35' W 071°25'0 0.0
2016-Jul-23 13:33N 41°35' W 071°25'0 0.0
2016-Jul-23 12:34N 41°35' W 071°25'0 0.0
2016-Jul-23 11:33N 41°35' W 071°25'0 0.0
2016-Jul-23 10:13N 41°35' W 071°25'0 0.0
2016-Jul-23 09:22N 41°35' W 071°25'47 6.7
2016-Jul-23 02:19N 41°13' W 072°20'6 7.4
2016-Jul-23 01:33N 41°13' W 072°28'9 8.9
2016-Jul-23 00:33N 41°12' W 072°39'61 1.6
2016-Jul-21 10:29N 41°35' W 071°24'0 0.4
2016-Jul-21 09:23N 41°35' W 071°25'0 0.0
2016-Jul-21 08:33N 41°35' W 071°25'0 0.0
2016-Jul-21 07:34N 41°35' W 071°25'0 0.0
2016-Jul-21 03:27N 41°35' W 071°25'0 0.0
2016-Jul-21 02:32N 41°35' W 071°25'0 0.0
2016-Jul-21 01:28N 41°35' W 071°25'  

Dump ship's entire track history